sensor_id;sensor_type;location;lat;lon;timestamp;P1;durP1;ratioP1;P2;durP2;ratioP2
14789;SDS011;7486;51.010;10.366;2024-02-04T00:01:38;2.50;;;2.30;;
14789;SDS011;7486;51.010;10.366;2024-02-04T00:04:25;3.13;;;2.70;;
14789;SDS011;7486;51.010;10.366;2024-02-04T00:07:11;2.80;;;2.60;;
14789;SDS011;7486;51.010;10.366;2024-02-04T00:09:57;2.90;;;2.70;;
14789;SDS011;7486;51.010;10.366;2024-02-04T00:12:43;2.67;;;2.47;;
14789;SDS011;7486;51.010;10.366;2024-02-04T00:15:30;2.60;;;2.30;;
14789;SDS011;7486;51.010;10.366;2024-02-04T00:18:15;3.55;;;2.55;;
14789;SDS011;7486;51.010;10.366;2024-02-04T00:21:01;2.37;;;2.17;;
14789;SDS011;7486;51.010;10.366;2024-02-04T00:23:48;2.43;;;2.10;;
14789;SDS011;7486;51.010;10.366;2024-02-04T00:26:33;2.67;;;2.03;;
14789;SDS011;7486;51.010;10.366;2024-02-04T00:29:19;2.20;;;2.00;;
14789;SDS011;7486;51.010;10.366;2024-02-04T00:32:05;2.50;;;2.30;;
14789;SDS011;7486;51.010;10.366;2024-02-04T00:34:54;2.10;;;1.97;;
14789;SDS011;7486;51.010;10.366;2024-02-04T00:37:40;2.20;;;2.00;;
14789;SDS011;7486;51.010;10.366;2024-02-04T00:40:26;3.13;;;2.27;;
14789;SDS011;7486;51.010;10.366;2024-02-04T00:43:12;2.40;;;2.20;;
14789;SDS011;7486;51.010;10.366;2024-02-04T00:45:58;2.63;;;2.40;;
14789;SDS011;7486;51.010;10.366;2024-02-04T00:48:44;2.60;;;2.40;;
14789;SDS011;7486;51.010;10.366;2024-02-04T00:51:29;3.07;;;2.83;;
14789;SDS011;7486;51.010;10.366;2024-02-04T00:54:15;3.20;;;2.90;;
14789;SDS011;7486;51.010;10.366;2024-02-04T00:57:01;3.17;;;2.93;;
14789;SDS011;7486;51.010;10.366;2024-02-04T00:59:47;3.93;;;3.20;;
14789;SDS011;7486;51.010;10.366;2024-02-04T01:02:33;4.10;;;3.40;;
14789;SDS011;7486;51.010;10.366;2024-02-04T01:05:18;3.80;;;3.37;;
14789;SDS011;7486;51.010;10.366;2024-02-04T01:08:06;3.83;;;3.53;;
14789;SDS011;7486;51.010;10.366;2024-02-04T01:10:53;4.27;;;3.37;;
14789;SDS011;7486;51.010;10.366;2024-02-04T01:13:39;6.27;;;4.00;;
14789;SDS011;7486;51.010;10.366;2024-02-04T01:16:25;4.70;;;4.20;;
14789;SDS011;7486;51.010;10.366;2024-02-04T01:19:10;4.30;;;3.90;;
14789;SDS011;7486;51.010;10.366;2024-02-04T01:21:57;4.67;;;4.23;;
14789;SDS011;7486;51.010;10.366;2024-02-04T01:24:43;4.30;;;3.90;;
14789;SDS011;7486;51.010;10.366;2024-02-04T01:27:29;4.40;;;4.00;;
14789;SDS011;7486;51.010;10.366;2024-02-04T01:30:15;5.33;;;4.07;;
14789;SDS011;7486;51.010;10.366;2024-02-04T01:33:01;5.53;;;4.05;;
14789;SDS011;7486;51.010;10.366;2024-02-04T01:35:47;5.83;;;4.13;;
14789;SDS011;7486;51.010;10.366;2024-02-04T01:38:32;4.13;;;3.73;;
14789;SDS011;7486;51.010;10.366;2024-02-04T01:41:18;4.07;;;3.70;;
14789;SDS011;7486;51.010;10.366;2024-02-04T01:44:04;4.60;;;4.20;;
14789;SDS011;7486;51.010;10.366;2024-02-04T01:46:50;3.97;;;3.67;;
14789;SDS011;7486;51.010;10.366;2024-02-04T01:49:36;5.23;;;4.13;;
14789;SDS011;7486;51.010;10.366;2024-02-04T01:52:23;3.92;;;3.58;;
14789;SDS011;7486;51.010;10.366;2024-02-04T01:55:09;3.58;;;3.28;;
14789;SDS011;7486;51.010;10.366;2024-02-04T01:57:55;3.80;;;3.50;;
14789;SDS011;7486;51.010;10.366;2024-02-04T02:00:40;3.43;;;3.13;;
14789;SDS011;7486;51.010;10.366;2024-02-04T02:03:27;4.13;;;3.40;;
14789;SDS011;7486;51.010;10.366;2024-02-04T02:06:16;3.28;;;2.97;;
14789;SDS011;7486;51.010;10.366;2024-02-04T02:09:02;3.30;;;3.00;;
14789;SDS011;7486;51.010;10.366;2024-02-04T02:11:54;3.40;;;3.10;;
14789;SDS011;7486;51.010;10.366;2024-02-04T02:14:48;2.93;;;2.70;;
14789;SDS011;7486;51.010;10.366;2024-02-04T02:17:45;3.03;;;2.78;;
14789;SDS011;7486;51.010;10.366;2024-02-04T02:24:05;3.33;;;3.03;;
14789;SDS011;7486;51.010;10.366;2024-02-04T02:26:57;3.13;;;2.90;;
14789;SDS011;7486;51.010;10.366;2024-02-04T02:29:43;2.90;;;2.65;;
14789;SDS011;7486;51.010;10.366;2024-02-04T02:32:29;4.07;;;3.28;;
14789;SDS011;7486;51.010;10.366;2024-02-04T02:35:15;3.95;;;3.00;;
14789;SDS011;7486;51.010;10.366;2024-02-04T02:40:59;3.33;;;2.97;;
14789;SDS011;7486;51.010;10.366;2024-02-04T02:43:49;3.23;;;2.60;;
14789;SDS011;7486;51.010;10.366;2024-02-04T02:46:37;3.40;;;3.00;;
14789;SDS011;7486;51.010;10.366;2024-02-04T02:49:24;3.10;;;2.80;;
14789;SDS011;7486;51.010;10.366;2024-02-04T02:52:10;3.20;;;2.90;;
14789;SDS011;7486;51.010;10.366;2024-02-04T02:54:56;3.10;;;2.90;;
14789;SDS011;7486;51.010;10.366;2024-02-04T02:57:41;3.20;;;3.00;;
14789;SDS011;7486;51.010;10.366;2024-02-04T03:00:27;4.50;;;3.27;;
14789;SDS011;7486;51.010;10.366;2024-02-04T03:03:12;3.27;;;2.90;;
14789;SDS011;7486;51.010;10.366;2024-02-04T03:05:58;2.70;;;2.50;;
14789;SDS011;7486;51.010;10.366;2024-02-04T03:08:44;3.20;;;2.90;;
14789;SDS011;7486;51.010;10.366;2024-02-04T03:11:30;2.80;;;2.60;;
14789;SDS011;7486;51.010;10.366;2024-02-04T03:14:16;2.73;;;2.53;;
14789;SDS011;7486;51.010;10.366;2024-02-04T03:17:01;2.72;;;2.53;;
14789;SDS011;7486;51.010;10.366;2024-02-04T03:19:48;3.30;;;2.63;;
14789;SDS011;7486;51.010;10.366;2024-02-04T03:22:36;2.83;;;2.63;;
14789;SDS011;7486;51.010;10.366;2024-02-04T03:25:22;2.50;;;2.30;;
14789;SDS011;7486;51.010;10.366;2024-02-04T03:28:08;2.60;;;2.40;;
14789;SDS011;7486;51.010;10.366;2024-02-04T03:30:53;2.67;;;2.33;;
14789;SDS011;7486;51.010;10.366;2024-02-04T03:33:39;2.30;;;2.05;;
14789;SDS011;7486;51.010;10.366;2024-02-04T03:36:27;2.30;;;2.10;;
14789;SDS011;7486;51.010;10.366;2024-02-04T03:39:13;2.23;;;2.03;;
14789;SDS011;7486;51.010;10.366;2024-02-04T03:41:59;2.65;;;1.90;;
14789;SDS011;7486;51.010;10.366;2024-02-04T03:44:46;2.00;;;1.90;;
14789;SDS011;7486;51.010;10.366;2024-02-04T03:47:32;1.93;;;1.77;;
14789;SDS011;7486;51.010;10.366;2024-02-04T03:50:18;3.35;;;1.60;;
14789;SDS011;7486;51.010;10.366;2024-02-04T03:53:04;1.90;;;1.70;;
14789;SDS011;7486;51.010;10.366;2024-02-04T03:55:49;1.83;;;1.70;;
14789;SDS011;7486;51.010;10.366;2024-02-04T03:58:35;1.90;;;1.80;;
14789;SDS011;7486;51.010;10.366;2024-02-04T04:01:20;1.70;;;1.60;;
14789;SDS011;7486;51.010;10.366;2024-02-04T04:04:06;1.60;;;1.40;;
14789;SDS011;7486;51.010;10.366;2024-02-04T04:06:53;1.60;;;1.50;;
14789;SDS011;7486;51.010;10.366;2024-02-04T04:09:39;1.77;;;1.67;;
14789;SDS011;7486;51.010;10.366;2024-02-04T04:12:25;2.00;;;1.60;;
14789;SDS011;7486;51.010;10.366;2024-02-04T04:15:11;2.00;;;1.50;;
14789;SDS011;7486;51.010;10.366;2024-02-04T04:17:57;1.70;;;1.60;;
14789;SDS011;7486;51.010;10.366;2024-02-04T04:20:43;1.73;;;1.63;;
14789;SDS011;7486;51.010;10.366;2024-02-04T04:23:29;1.50;;;1.40;;
14789;SDS011;7486;51.010;10.366;2024-02-04T04:26:15;2.07;;;1.50;;
14789;SDS011;7486;51.010;10.366;2024-02-04T04:29:01;1.50;;;1.40;;
14789;SDS011;7486;51.010;10.366;2024-02-04T04:31:47;1.30;;;1.30;;
14789;SDS011;7486;51.010;10.366;2024-02-04T04:34:33;1.53;;;1.43;;
14789;SDS011;7486;51.010;10.366;2024-02-04T04:37:19;1.47;;;1.37;;
14789;SDS011;7486;51.010;10.366;2024-02-04T04:40:06;1.30;;;1.20;;
14789;SDS011;7486;51.010;10.366;2024-02-04T04:42:53;1.90;;;1.20;;
14789;SDS011;7486;51.010;10.366;2024-02-04T04:45:40;1.30;;;1.20;;
14789;SDS011;7486;51.010;10.366;2024-02-04T04:48:25;2.27;;;1.17;;
14789;SDS011;7486;51.010;10.366;2024-02-04T04:51:11;0.95;;;0.95;;
14789;SDS011;7486;51.010;10.366;2024-02-04T04:53:57;1.10;;;1.00;;
14789;SDS011;7486;51.010;10.366;2024-02-04T04:56:43;0.83;;;0.83;;
14789;SDS011;7486;51.010;10.366;2024-02-04T04:59:28;0.80;;;0.80;;
14789;SDS011;7486;51.010;10.366;2024-02-04T05:02:16;0.70;;;0.70;;
14789;SDS011;7486;51.010;10.366;2024-02-04T05:05:02;0.50;;;0.50;;
14789;SDS011;7486;51.010;10.366;2024-02-04T05:07:48;0.80;;;0.60;;
14789;SDS011;7486;51.010;10.366;2024-02-04T05:10:34;0.50;;;0.50;;
14789;SDS011;7486;51.010;10.366;2024-02-04T05:13:20;0.60;;;0.60;;
14789;SDS011;7486;51.010;10.366;2024-02-04T05:16:06;0.43;;;0.43;;
14789;SDS011;7486;51.010;10.366;2024-02-04T05:18:52;1.40;;;0.53;;
14789;SDS011;7486;51.010;10.366;2024-02-04T05:21:38;0.50;;;0.50;;
14789;SDS011;7486;51.010;10.366;2024-02-04T05:24:25;0.40;;;0.40;;
14789;SDS011;7486;51.010;10.366;2024-02-04T05:27:10;0.40;;;0.40;;
14789;SDS011;7486;51.010;10.366;2024-02-04T05:29:55;0.53;;;0.40;;
14789;SDS011;7486;51.010;10.366;2024-02-04T05:32:41;0.50;;;0.50;;
14789;SDS011;7486;51.010;10.366;2024-02-04T05:35:27;0.30;;;0.30;;
14789;SDS011;7486;51.010;10.366;2024-02-04T05:38:12;0.60;;;0.60;;
14789;SDS011;7486;51.010;10.366;2024-02-04T05:40:58;0.37;;;0.37;;
14789;SDS011;7486;51.010;10.366;2024-02-04T05:43:44;0.50;;;0.50;;
14789;SDS011;7486;51.010;10.366;2024-02-04T05:46:29;0.53;;;0.50;;
14789;SDS011;7486;51.010;10.366;2024-02-04T05:49:15;0.70;;;0.50;;
14789;SDS011;7486;51.010;10.366;2024-02-04T05:52:01;0.55;;;0.30;;
14789;SDS011;7486;51.010;10.366;2024-02-04T05:54:46;0.45;;;0.45;;
14789;SDS011;7486;51.010;10.366;2024-02-04T05:57:32;0.57;;;0.57;;
14789;SDS011;7486;51.010;10.366;2024-02-04T06:00:18;0.47;;;0.47;;
14789;SDS011;7486;51.010;10.366;2024-02-04T06:03:03;0.60;;;0.60;;
14789;SDS011;7486;51.010;10.366;2024-02-04T06:05:49;1.17;;;0.50;;
14789;SDS011;7486;51.010;10.366;2024-02-04T06:08:35;0.30;;;0.30;;
14789;SDS011;7486;51.010;10.366;2024-02-04T06:11:21;0.50;;;0.50;;
14789;SDS011;7486;51.010;10.366;2024-02-04T06:14:06;0.43;;;0.43;;
14789;SDS011;7486;51.010;10.366;2024-02-04T06:16:52;0.77;;;0.60;;
14789;SDS011;7486;51.010;10.366;2024-02-04T06:19:37;0.57;;;0.57;;
14789;SDS011;7486;51.010;10.366;2024-02-04T06:22:23;0.60;;;0.50;;
14789;SDS011;7486;51.010;10.366;2024-02-04T06:25:09;0.50;;;0.50;;
14789;SDS011;7486;51.010;10.366;2024-02-04T06:27:55;1.13;;;0.70;;
14789;SDS011;7486;51.010;10.366;2024-02-04T06:30:40;0.60;;;0.60;;
14789;SDS011;7486;51.010;10.366;2024-02-04T06:33:26;0.60;;;0.60;;
14789;SDS011;7486;51.010;10.366;2024-02-04T06:36:11;0.50;;;0.50;;
14789;SDS011;7486;51.010;10.366;2024-02-04T06:38:57;0.65;;;0.65;;
14789;SDS011;7486;51.010;10.366;2024-02-04T06:41:43;0.83;;;0.70;;
14789;SDS011;7486;51.010;10.366;2024-02-04T06:44:28;0.80;;;0.80;;
14789;SDS011;7486;51.010;10.366;2024-02-04T06:47:15;0.70;;;0.70;;
14789;SDS011;7486;51.010;10.366;2024-02-04T06:50:00;0.70;;;0.70;;
14789;SDS011;7486;51.010;10.366;2024-02-04T06:52:46;0.80;;;0.80;;
14789;SDS011;7486;51.010;10.366;2024-02-04T06:55:32;0.70;;;0.70;;
14789;SDS011;7486;51.010;10.366;2024-02-04T06:58:20;0.77;;;0.77;;
14789;SDS011;7486;51.010;10.366;2024-02-04T07:01:05;0.73;;;0.73;;
14789;SDS011;7486;51.010;10.366;2024-02-04T07:03:51;0.60;;;0.60;;
14789;SDS011;7486;51.010;10.366;2024-02-04T07:06:38;0.70;;;0.70;;
14789;SDS011;7486;51.010;10.366;2024-02-04T07:09:23;0.60;;;0.60;;
14789;SDS011;7486;51.010;10.366;2024-02-04T07:12:09;1.92;;;0.80;;
14789;SDS011;7486;51.010;10.366;2024-02-04T07:14:54;1.33;;;0.70;;
14789;SDS011;7486;51.010;10.366;2024-02-04T07:17:39;0.95;;;0.90;;
14789;SDS011;7486;51.010;10.366;2024-02-04T07:20:25;0.77;;;0.77;;
14789;SDS011;7486;51.010;10.366;2024-02-04T07:23:10;0.75;;;0.75;;
14789;SDS011;7486;51.010;10.366;2024-02-04T07:25:55;1.10;;;0.80;;
14789;SDS011;7486;51.010;10.366;2024-02-04T07:28:41;0.73;;;0.73;;
14789;SDS011;7486;51.010;10.366;2024-02-04T07:31:26;0.77;;;0.77;;
14789;SDS011;7486;51.010;10.366;2024-02-04T07:34:12;0.60;;;0.60;;
14789;SDS011;7486;51.010;10.366;2024-02-04T07:36:58;0.50;;;0.50;;
14789;SDS011;7486;51.010;10.366;2024-02-04T07:39:43;0.33;;;0.33;;
14789;SDS011;7486;51.010;10.366;2024-02-04T07:42:29;0.60;;;0.60;;
14789;SDS011;7486;51.010;10.366;2024-02-04T07:45:15;0.50;;;0.50;;
14789;SDS011;7486;51.010;10.366;2024-02-04T07:48:02;0.30;;;0.30;;
14789;SDS011;7486;51.010;10.366;2024-02-04T07:50:48;0.40;;;0.40;;
14789;SDS011;7486;51.010;10.366;2024-02-04T07:53:36;0.37;;;0.37;;
14789;SDS011;7486;51.010;10.366;2024-02-04T07:56:21;0.30;;;0.30;;
14789;SDS011;7486;51.010;10.366;2024-02-04T07:59:07;1.73;;;0.50;;
14789;SDS011;7486;51.010;10.366;2024-02-04T08:01:54;0.50;;;0.50;;
14789;SDS011;7486;51.010;10.366;2024-02-04T08:04:40;0.60;;;0.60;;
14789;SDS011;7486;51.010;10.366;2024-02-04T08:07:26;0.60;;;0.60;;
14789;SDS011;7486;51.010;10.366;2024-02-04T08:10:11;1.75;;;0.80;;
14789;SDS011;7486;51.010;10.366;2024-02-04T08:12:57;1.00;;;1.00;;
14789;SDS011;7486;51.010;10.366;2024-02-04T08:15:43;1.00;;;1.00;;
14789;SDS011;7486;51.010;10.366;2024-02-04T08:18:29;1.00;;;1.00;;
14789;SDS011;7486;51.010;10.366;2024-02-04T08:21:17;1.50;;;1.40;;
14789;SDS011;7486;51.010;10.366;2024-02-04T08:24:02;2.03;;;1.42;;
14789;SDS011;7486;51.010;10.366;2024-02-04T08:26:48;2.10;;;1.63;;
14789;SDS011;7486;51.010;10.366;2024-02-04T08:29:33;2.78;;;2.03;;
14789;SDS011;7486;51.010;10.366;2024-02-04T08:32:19;2.25;;;2.05;;
14789;SDS011;7486;51.010;10.366;2024-02-04T08:35:05;2.10;;;2.00;;
14789;SDS011;7486;51.010;10.366;2024-02-04T08:37:51;2.53;;;2.33;;
14789;SDS011;7486;51.010;10.366;2024-02-04T08:40:37;2.28;;;2.08;;
14789;SDS011;7486;51.010;10.366;2024-02-04T08:43:22;2.10;;;1.90;;
14789;SDS011;7486;51.010;10.366;2024-02-04T08:46:08;2.88;;;2.40;;
14789;SDS011;7486;51.010;10.366;2024-02-04T08:48:58;2.42;;;2.22;;
14789;SDS011;7486;51.010;10.366;2024-02-04T08:51:43;2.92;;;2.55;;
14789;SDS011;7486;51.010;10.366;2024-02-04T08:54:29;2.50;;;2.30;;
14789;SDS011;7486;51.010;10.366;2024-02-04T08:57:14;2.55;;;2.33;;
14789;SDS011;7486;51.010;10.366;2024-02-04T09:00:00;2.63;;;2.35;;
14789;SDS011;7486;51.010;10.366;2024-02-04T09:02:45;3.13;;;2.70;;
14789;SDS011;7486;51.010;10.366;2024-02-04T09:05:31;2.63;;;2.42;;
14789;SDS011;7486;51.010;10.366;2024-02-04T09:08:17;2.60;;;2.40;;
14789;SDS011;7486;51.010;10.366;2024-02-04T09:11:02;2.80;;;2.60;;
14789;SDS011;7486;51.010;10.366;2024-02-04T09:13:47;2.50;;;2.28;;
14789;SDS011;7486;51.010;10.366;2024-02-04T09:16:37;3.00;;;2.35;;
14789;SDS011;7486;51.010;10.366;2024-02-04T09:19:23;2.97;;;2.42;;
14789;SDS011;7486;51.010;10.366;2024-02-04T09:22:10;2.80;;;2.60;;
14789;SDS011;7486;51.010;10.366;2024-02-04T09:24:55;2.92;;;2.35;;
14789;SDS011;7486;51.010;10.366;2024-02-04T09:27:40;2.30;;;2.10;;
14789;SDS011;7486;51.010;10.366;2024-02-04T09:30:26;2.40;;;2.20;;
14789;SDS011;7486;51.010;10.366;2024-02-04T09:33:13;2.83;;;2.50;;
14789;SDS011;7486;51.010;10.366;2024-02-04T09:35:59;3.10;;;2.47;;
14789;SDS011;7486;51.010;10.366;2024-02-04T09:38:45;2.58;;;2.38;;
14789;SDS011;7486;51.010;10.366;2024-02-04T09:41:31;2.20;;;2.00;;
14789;SDS011;7486;51.010;10.366;2024-02-04T09:44:16;1.88;;;1.77;;
14789;SDS011;7486;51.010;10.366;2024-02-04T09:47:03;2.17;;;1.77;;
14789;SDS011;7486;51.010;10.366;2024-02-04T09:49:49;1.75;;;1.65;;
14789;SDS011;7486;51.010;10.366;2024-02-04T09:52:34;1.60;;;1.50;;
14789;SDS011;7486;51.010;10.366;2024-02-04T09:55:25;1.63;;;1.50;;
14789;SDS011;7486;51.010;10.366;2024-02-04T09:58:12;1.40;;;1.30;;
14789;SDS011;7486;51.010;10.366;2024-02-04T10:00:59;1.20;;;1.15;;
14789;SDS011;7486;51.010;10.366;2024-02-04T10:03:49;1.42;;;1.33;;
14789;SDS011;7486;51.010;10.366;2024-02-04T10:06:34;1.23;;;1.13;;
14789;SDS011;7486;51.010;10.366;2024-02-04T10:09:20;1.30;;;1.20;;
14789;SDS011;7486;51.010;10.366;2024-02-04T10:12:06;1.60;;;1.33;;
14789;SDS011;7486;51.010;10.366;2024-02-04T10:14:52;1.45;;;1.35;;
14789;SDS011;7486;51.010;10.366;2024-02-04T10:17:41;1.60;;;1.50;;
14789;SDS011;7486;51.010;10.366;2024-02-04T10:20:27;1.88;;;1.58;;
14789;SDS011;7486;51.010;10.366;2024-02-04T10:23:14;1.48;;;1.38;;
14789;SDS011;7486;51.010;10.366;2024-02-04T10:26:00;1.70;;;1.60;;
14789;SDS011;7486;51.010;10.366;2024-02-04T10:28:51;1.60;;;1.42;;
14789;SDS011;7486;51.010;10.366;2024-02-04T10:31:37;1.50;;;1.40;;
14789;SDS011;7486;51.010;10.366;2024-02-04T10:34:27;1.65;;;1.55;;
14789;SDS011;7486;51.010;10.366;2024-02-04T10:37:12;1.35;;;1.25;;
14789;SDS011;7486;51.010;10.366;2024-02-04T10:39:58;1.65;;;1.27;;
14789;SDS011;7486;51.010;10.366;2024-02-04T10:42:44;1.30;;;1.20;;
14789;SDS011;7486;51.010;10.366;2024-02-04T10:45:30;0.98;;;0.98;;
14789;SDS011;7486;51.010;10.366;2024-02-04T10:48:19;1.08;;;1.00;;
14789;SDS011;7486;51.010;10.366;2024-02-04T10:51:13;1.02;;;1.00;;
14789;SDS011;7486;51.010;10.366;2024-02-04T10:54:00;0.85;;;0.85;;
14789;SDS011;7486;51.010;10.366;2024-02-04T10:56:50;0.60;;;0.60;;
14789;SDS011;7486;51.010;10.366;2024-02-04T10:59:41;0.75;;;0.75;;
14789;SDS011;7486;51.010;10.366;2024-02-04T11:02:28;2.92;;;1.75;;
14789;SDS011;7486;51.010;10.366;2024-02-04T11:05:14;0.82;;;0.80;;
14789;SDS011;7486;51.010;10.366;2024-02-04T11:08:02;0.45;;;0.45;;
14789;SDS011;7486;51.010;10.366;2024-02-04T11:10:50;0.50;;;0.50;;
14789;SDS011;7486;51.010;10.366;2024-02-04T11:13:35;0.63;;;0.63;;
14789;SDS011;7486;51.010;10.366;2024-02-04T11:23:33;0.85;;;0.80;;
14789;SDS011;7486;51.010;10.366;2024-02-04T11:26:45;1.00;;;0.98;;
14789;SDS011;7486;51.010;10.366;2024-02-04T11:29:32;0.68;;;0.68;;
14789;SDS011;7486;51.010;10.366;2024-02-04T11:32:18;2.65;;;1.95;;
14789;SDS011;7486;51.010;10.366;2024-02-04T11:35:07;2.38;;;2.17;;
14789;SDS011;7486;51.010;10.366;2024-02-04T11:37:54;1.90;;;1.80;;
14789;SDS011;7486;51.010;10.366;2024-02-04T11:40:45;1.95;;;1.60;;
14789;SDS011;7486;51.010;10.366;2024-02-04T11:43:34;1.45;;;1.35;;
14789;SDS011;7486;51.010;10.366;2024-02-04T11:46:27;2.03;;;1.52;;
14789;SDS011;7486;51.010;10.366;2024-02-04T11:49:18;0.20;;;0.20;;
14789;SDS011;7486;51.010;10.366;2024-02-04T11:52:04;0.32;;;0.22;;
14789;SDS011;7486;51.010;10.366;2024-02-04T11:54:51;0.30;;;0.30;;
14789;SDS011;7486;51.010;10.366;2024-02-04T11:57:39;0.30;;;0.30;;
14789;SDS011;7486;51.010;10.366;2024-02-04T12:00:27;0.20;;;0.20;;
14789;SDS011;7486;51.010;10.366;2024-02-04T12:03:13;0.22;;;0.22;;
14789;SDS011;7486;51.010;10.366;2024-02-04T12:06:06;0.28;;;0.28;;
14789;SDS011;7486;51.010;10.366;2024-02-04T12:08:54;0.40;;;0.40;;
14789;SDS011;7486;51.010;10.366;2024-02-04T12:11:42;0.38;;;0.38;;
14789;SDS011;7486;51.010;10.366;2024-02-04T12:14:31;0.40;;;0.40;;
14789;SDS011;7486;51.010;10.366;2024-02-04T12:17:22;0.65;;;0.43;;
14789;SDS011;7486;51.010;10.366;2024-02-04T12:20:15;0.77;;;0.60;;
14789;SDS011;7486;51.010;10.366;2024-02-04T12:23:02;0.50;;;0.50;;
14789;SDS011;7486;51.010;10.366;2024-02-04T12:25:56;0.63;;;0.63;;
14789;SDS011;7486;51.010;10.366;2024-02-04T12:28:50;0.50;;;0.50;;
14789;SDS011;7486;51.010;10.366;2024-02-04T12:31:36;0.80;;;0.55;;
14789;SDS011;7486;51.010;10.366;2024-02-04T12:34:27;0.70;;;0.70;;
14789;SDS011;7486;51.010;10.366;2024-02-04T12:37:14;0.40;;;0.40;;
14789;SDS011;7486;51.010;10.366;2024-02-04T12:40:07;0.47;;;0.35;;
14789;SDS011;7486;51.010;10.366;2024-02-04T12:42:55;1.17;;;0.45;;
14789;SDS011;7486;51.010;10.366;2024-02-04T12:45:49;0.50;;;0.50;;
14789;SDS011;7486;51.010;10.366;2024-02-04T12:48:50;0.50;;;0.50;;
14789;SDS011;7486;51.010;10.366;2024-02-04T12:51:38;0.80;;;0.80;;
14789;SDS011;7486;51.010;10.366;2024-02-04T12:54:23;0.82;;;0.82;;
14789;SDS011;7486;51.010;10.366;2024-02-04T12:57:09;0.90;;;0.90;;
14789;SDS011;7486;51.010;10.366;2024-02-04T13:00:03;1.00;;;1.00;;
14789;SDS011;7486;51.010;10.366;2024-02-04T13:02:49;0.90;;;0.90;;
14789;SDS011;7486;51.010;10.366;2024-02-04T13:05:35;1.00;;;0.70;;
14789;SDS011;7486;51.010;10.366;2024-02-04T13:08:22;0.80;;;0.80;;
14789;SDS011;7486;51.010;10.366;2024-02-04T13:11:08;1.10;;;0.80;;
14789;SDS011;7486;51.010;10.366;2024-02-04T13:13:53;1.05;;;0.95;;
14789;SDS011;7486;51.010;10.366;2024-02-04T13:16:38;0.80;;;0.80;;
14789;SDS011;7486;51.010;10.366;2024-02-04T13:19:24;0.93;;;0.90;;
14789;SDS011;7486;51.010;10.366;2024-02-04T13:22:10;0.85;;;0.80;;
14789;SDS011;7486;51.010;10.366;2024-02-04T13:24:56;0.70;;;0.70;;
14789;SDS011;7486;51.010;10.366;2024-02-04T13:27:42;0.75;;;0.75;;
14789;SDS011;7486;51.010;10.366;2024-02-04T13:30:27;1.10;;;1.00;;
14789;SDS011;7486;51.010;10.366;2024-02-04T13:33:13;0.70;;;0.70;;
14789;SDS011;7486;51.010;10.366;2024-02-04T13:35:59;0.88;;;0.88;;
14789;SDS011;7486;51.010;10.366;2024-02-04T13:38:45;0.98;;;0.90;;
14789;SDS011;7486;51.010;10.366;2024-02-04T13:41:32;0.77;;;0.77;;
14789;SDS011;7486;51.010;10.366;2024-02-04T13:44:17;0.70;;;0.70;;
14789;SDS011;7486;51.010;10.366;2024-02-04T13:47:03;0.70;;;0.70;;
14789;SDS011;7486;51.010;10.366;2024-02-04T13:49:49;1.10;;;1.00;;
14789;SDS011;7486;51.010;10.366;2024-02-04T13:52:34;0.90;;;0.73;;
14789;SDS011;7486;51.010;10.366;2024-02-04T13:55:20;1.00;;;1.00;;
14789;SDS011;7486;51.010;10.366;2024-02-04T13:58:05;1.00;;;0.82;;
14789;SDS011;7486;51.010;10.366;2024-02-04T14:00:51;0.88;;;0.88;;
14789;SDS011;7486;51.010;10.366;2024-02-04T14:03:37;0.95;;;0.90;;
14789;SDS011;7486;51.010;10.366;2024-02-04T14:06:22;0.80;;;0.80;;
14789;SDS011;7486;51.010;10.366;2024-02-04T14:09:08;0.82;;;0.82;;
14789;SDS011;7486;51.010;10.366;2024-02-04T14:11:53;0.68;;;0.68;;
14789;SDS011;7486;51.010;10.366;2024-02-04T14:14:39;1.17;;;0.80;;
14789;SDS011;7486;51.010;10.366;2024-02-04T14:17:25;0.70;;;0.70;;
14789;SDS011;7486;51.010;10.366;2024-02-04T14:20:10;0.93;;;0.60;;
14789;SDS011;7486;51.010;10.366;2024-02-04T14:22:56;0.80;;;0.80;;
14789;SDS011;7486;51.010;10.366;2024-02-04T14:25:42;0.70;;;0.70;;
14789;SDS011;7486;51.010;10.366;2024-02-04T14:28:27;0.93;;;0.90;;
14789;SDS011;7486;51.010;10.366;2024-02-04T14:31:13;0.77;;;0.77;;
14789;SDS011;7486;51.010;10.366;2024-02-04T14:33:59;2.05;;;0.80;;
14789;SDS011;7486;51.010;10.366;2024-02-04T14:36:44;0.93;;;0.80;;
14789;SDS011;7486;51.010;10.366;2024-02-04T14:39:31;0.60;;;0.60;;
14789;SDS011;7486;51.010;10.366;2024-02-04T14:42:17;1.20;;;0.90;;
14789;SDS011;7486;51.010;10.366;2024-02-04T14:45:03;0.90;;;0.90;;
14789;SDS011;7486;51.010;10.366;2024-02-04T14:47:49;1.20;;;1.10;;
14789;SDS011;7486;51.010;10.366;2024-02-04T14:50:34;1.10;;;1.10;;
14789;SDS011;7486;51.010;10.366;2024-02-04T14:53:20;1.13;;;1.00;;
14789;SDS011;7486;51.010;10.366;2024-02-04T14:56:05;0.90;;;0.90;;
14789;SDS011;7486;51.010;10.366;2024-02-04T14:58:51;1.63;;;0.93;;
14789;SDS011;7486;51.010;10.366;2024-02-04T15:01:37;0.88;;;0.88;;
14789;SDS011;7486;51.010;10.366;2024-02-04T15:04:23;0.70;;;0.70;;
14789;SDS011;7486;51.010;10.366;2024-02-04T15:07:08;0.90;;;0.90;;
14789;SDS011;7486;51.010;10.366;2024-02-04T15:09:54;0.80;;;0.80;;
14789;SDS011;7486;51.010;10.366;2024-02-04T15:12:40;1.27;;;0.80;;
14789;SDS011;7486;51.010;10.366;2024-02-04T15:15:26;1.20;;;1.00;;
14789;SDS011;7486;51.010;10.366;2024-02-04T15:18:12;1.52;;;0.85;;
14789;SDS011;7486;51.010;10.366;2024-02-04T15:20:57;0.80;;;0.80;;
14789;SDS011;7486;51.010;10.366;2024-02-04T19:20:35;2.83;;;2.40;;
14789;SDS011;7486;51.010;10.366;2024-02-04T19:23:22;2.45;;;2.25;;
14789;SDS011;7486;51.010;10.366;2024-02-04T19:26:08;2.17;;;1.80;;
14789;SDS011;7486;51.010;10.366;2024-02-04T19:28:53;1.90;;;1.80;;
14789;SDS011;7486;51.010;10.366;2024-02-04T19:31:39;2.67;;;2.33;;
14789;SDS011;7486;51.010;10.366;2024-02-04T19:34:28;2.17;;;2.08;;
14789;SDS011;7486;51.010;10.366;2024-02-04T19:37:00;2.30;;;2.20;;
14789;SDS011;7486;51.010;10.366;2024-02-04T19:39:46;1.98;;;1.88;;
14789;SDS011;7486;51.010;10.366;2024-02-04T19:42:31;2.40;;;2.30;;
14789;SDS011;7486;51.010;10.366;2024-02-04T19:45:17;1.90;;;1.80;;
14789;SDS011;7486;51.010;10.366;2024-02-04T19:48:07;2.22;;;2.13;;
14789;SDS011;7486;51.010;10.366;2024-02-04T19:50:57;2.47;;;2.25;;
14789;SDS011;7486;51.010;10.366;2024-02-04T19:53:43;1.60;;;1.50;;
14789;SDS011;7486;51.010;10.366;2024-02-04T19:56:28;1.15;;;1.15;;
14789;SDS011;7486;51.010;10.366;2024-02-04T19:59:13;0.80;;;0.80;;
14789;SDS011;7486;51.010;10.366;2024-02-04T20:01:59;0.90;;;0.90;;
14789;SDS011;7486;51.010;10.366;2024-02-04T20:04:46;2.28;;;1.10;;
14789;SDS011;7486;51.010;10.366;2024-02-04T20:07:32;1.00;;;1.00;;
14789;SDS011;7486;51.010;10.366;2024-02-04T20:10:20;1.45;;;1.13;;
14789;SDS011;7486;51.010;10.366;2024-02-04T20:13:05;1.20;;;1.00;;
14789;SDS011;7486;51.010;10.366;2024-02-04T20:15:51;1.00;;;1.00;;
14789;SDS011;7486;51.010;10.366;2024-02-04T20:18:36;1.70;;;1.60;;
14789;SDS011;7486;51.010;10.366;2024-02-04T20:21:22;1.50;;;1.40;;
14789;SDS011;7486;51.010;10.366;2024-02-04T20:24:08;1.23;;;1.20;;
14789;SDS011;7486;51.010;10.366;2024-02-04T20:26:57;1.20;;;1.20;;
14789;SDS011;7486;51.010;10.366;2024-02-04T20:29:45;1.08;;;1.00;;
14789;SDS011;7486;51.010;10.366;2024-02-04T20:32:32;1.05;;;0.80;;
14789;SDS011;7486;51.010;10.366;2024-02-04T20:35:19;0.80;;;0.80;;
14789;SDS011;7486;51.010;10.366;2024-02-04T20:38:05;0.60;;;0.60;;
14789;SDS011;7486;51.010;10.366;2024-02-04T20:40:51;0.85;;;0.85;;
14789;SDS011;7486;51.010;10.366;2024-02-04T20:43:41;1.00;;;0.90;;
14789;SDS011;7486;51.010;10.366;2024-02-04T20:46:27;0.80;;;0.80;;
14789;SDS011;7486;51.010;10.366;2024-02-04T20:49:14;0.50;;;0.50;;
14789;SDS011;7486;51.010;10.366;2024-02-04T20:52:00;0.70;;;0.70;;
14789;SDS011;7486;51.010;10.366;2024-02-04T20:54:48;0.40;;;0.40;;